KHLR/HLR METAR and TAF weather

Enter ICAO airport designator
Station Type Date Time Source
KHLR METAR 2021/07/29 17:58 UTC NOAA

KHLR 291758Z AUTO 06005KT 10SM FEW320 32/22 A3008 RMK AO2 SLP173 T03170218 10325 20246 58010 TSNO $


Station Type Date Time Source
KHLR Decoded METAR 2021/07/29 17:58 UTC NOAA

Fort Hood, Hood AAF Ft Hood, TX, United States (KHLR) 31-08N 097-42W
Jul 29, 2021 - 01:58 PM EDT / 2021.07.29 1758 UTC
Wind: from the ENE (060 degrees) at 6 MPH (5 KT):0
Visibility: 10 mile(s):0
Sky conditions: mostly clear
Temperature: 89.1 F (31.7 C)
Heat index: 95.2 F (35.1 C):1
Dew Point: 71.2 F (21.8 C)
Relative Humidity: 55%
Pressure (altimeter): 30.08 in. Hg (1018 hPa)
Pressure tendency: 0.03 inches (1.0 hPa) lower than three hours ago
ob: KHLR 291758Z AUTO 06005KT 10SM FEW320 32/22 A3008 RMK AO2 SLP173 T03170218 10325 20246 58010 TSNO
cycle: 18

Station Type Date Time Source
KHLR TAF UTC NOAA

Error!

Example: see airport list